Time;durP1;ratioP1;P1;durP2;ratioP2;P2;SDS_P1;SDS_P2;PMS_P1;PMS_P2;Temp;Humidity;BMP_temperature;BMP_pressure;BME280_temperature;BME280_humidity;BME280_pressure;Samples;Min_cycle;Max_cycle;Signal;HPM_P1;HPM_P2
2021/09/05 00:02:18;;;;;;;8.98;5.53;;;;;;;8.86;69.59;100549.46;1783369;79;20975;-76
2021/09/05 00:04:44;;;;;;;8.85;4.80;;;;;;;8.82;69.59;100554.11;1783753;80;20989;-76
2021/09/05 00:07:12;;;;;;;8.35;5.00;;;;;;;8.80;69.61;100559.97;1780199;80;20984;-76
2021/09/05 00:09:41;;;;;;;9.23;5.15;;;;;;;8.82;69.69;100554.59;1775280;80;20981;-75
2021/09/05 00:12:08;;;;;;;7.30;4.42;;;;;;;8.84;69.78;100561.91;1775262;79;22811;-74
2021/09/05 00:14:36;;;;;;;8.88;4.75;;;;;;;8.86;69.89;100563.47;1774225;79;21444;-74
2021/09/05 00:17:04;;;;;;;9.25;4.58;;;;;;;8.88;70.08;100562.08;1775212;80;21020;-74
2021/09/05 00:19:30;;;;;;;7.08;4.35;;;;;;;8.89;70.09;100567.71;1754105;80;21348;-74
2021/09/05 00:21:56;;;;;;;10.68;4.67;;;;;;;8.89;70.19;100569.87;1759040;80;21051;-75
2021/09/05 00:24:23;;;;;;;8.03;4.97;;;;;;;8.90;70.25;100575.98;1744544;82;21836;-73
2021/09/05 00:26:49;;;;;;;7.78;4.42;;;;;;;8.91;70.24;100578.13;1744395;80;21459;-74
2021/09/05 00:29:17;;;;;;;8.73;4.75;;;;;;;8.94;70.22;100577.91;1744730;82;21001;-74
2021/09/05 00:31:44;;;;;;;7.97;5.20;;;;;;;8.98;70.12;100578.93;1753273;80;20985;-74
2021/09/05 00:34:10;;;;;;;8.33;4.75;;;;;;;9.02;70.02;100580.86;1775211;79;21411;-73
2021/09/05 00:36:38;;;;;;;8.60;4.87;;;;;;;9.03;69.97;100581.23;1775413;80;20921;-74
2021/09/05 00:39:06;;;;;;;8.55;4.83;;;;;;;9.02;69.88;100588.29;1775143;80;21012;-74
2021/09/05 00:41:33;;;;;;;8.18;5.15;;;;;;;9.00;69.83;100584.09;1775226;80;21454;-74
2021/09/05 00:44:05;;;;;;;8.13;5.35;;;;;;;8.98;69.78;100585.52;1775400;80;20983;-75
2021/09/05 00:46:34;;;;;;;7.97;5.00;;;;;;;8.99;69.67;100577.98;1763582;79;21455;-75
2021/09/05 00:49:01;;;;;;;9.15;5.50;;;;;;;9.01;69.65;100583.97;1762863;80;21851;-76
2021/09/05 00:51:29;;;;;;;8.73;5.42;;;;;;;9.00;69.71;100584.92;1775172;79;21028;-75
2021/09/05 00:53:58;;;;;;;10.25;5.03;;;;;;;9.00;69.74;100588.03;1775420;80;20992;-75
2021/09/05 00:56:33;;;;;;;11.45;6.00;;;;;;;8.98;69.81;100585.52;1775294;80;21070;-76
2021/09/05 00:59:03;;;;;;;8.90;5.65;;;;;;;8.95;69.87;100594.08;1775482;80;20952;-76
2021/09/05 01:01:30;;;;;;;10.50;5.60;;;;;;;8.93;69.88;100594.67;1759400;80;22210;-77
2021/09/05 01:03:57;;;;;;;12.35;5.40;;;;;;;8.91;69.93;100591.30;1744775;82;20988;-77
2021/09/05 01:06:25;;;;;;;10.23;5.83;;;;;;;8.89;69.97;100593.58;1741960;80;20976;-77
2021/09/05 01:08:53;;;;;;;8.30;5.62;;;;;;;8.87;70.00;100595.92;1775012;80;21748;-77
2021/09/05 01:11:21;;;;;;;8.08;5.35;;;;;;;8.84;70.04;100596.14;1775221;80;20936;-77
2021/09/05 01:13:50;;;;;;;11.48;5.80;;;;;;;8.80;70.01;100593.36;1774637;80;21867;-78
2021/09/05 01:16:26;;;;;;;9.20;5.25;;;;;;;8.77;70.04;100594.88;1764917;80;20937;-77
2021/09/05 01:18:54;;;;;;;7.78;5.12;;;;;;;8.73;70.01;100597.36;1744408;80;20981;-77
2021/09/05 01:21:43;;;;;;;11.90;5.55;;;;;;;8.68;70.01;100599.44;1744519;82;20957;-77
2021/09/05 01:24:22;;;;;;;7.65;5.50;;;;;;;8.63;69.97;100599.77;1708006;82;21045;-77
2021/09/05 01:26:51;;;;;;;9.93;5.08;;;;;;;8.61;69.97;100614.83;1741165;82;21839;-77
2021/09/05 01:29:37;;;;;;;7.55;5.05;;;;;;;8.58;69.97;100618.50;1744475;81;21031;-77
2021/09/05 01:32:21;;;;;;;10.78;5.53;;;;;;;8.55;69.96;100616.55;1744448;82;20933;-75
2021/09/05 01:35:07;;;;;;;8.00;5.22;;;;;;;8.53;69.96;100620.61;1744481;82;20992;-76
2021/09/05 01:37:45;;;;;;;9.85;5.15;;;;;;;8.50;69.98;100620.83;1741285;82;21514;-76
2021/09/05 01:40:21;;;;;;;8.15;5.15;;;;;;;8.49;69.96;100620.45;1745455;80;22789;-76
2021/09/05 01:43:05;;;;;;;8.90;5.58;;;;;;;8.48;69.95;100624.48;1744383;82;21137;-76
2021/09/05 01:45:34;;;;;;;8.55;5.17;;;;;;;8.44;69.95;100629.59;1756177;80;21438;-75
2021/09/05 01:48:02;;;;;;;8.35;5.15;;;;;;;8.39;70.01;100635.62;1745682;80;20946;-78
2021/09/05 01:50:36;;;;;;;9.53;4.90;;;;;;;8.37;70.03;100640.98;1770804;80;21056;-79
2021/09/05 01:53:22;;;;;;;7.95;5.17;;;;;;;8.34;70.05;100645.11;1760503;80;22252;-73
2021/09/05 01:55:53;;;;;;;8.70;5.40;;;;;;;8.33;70.11;100647.37;1765063;80;21495;-75
2021/09/05 01:58:38;;;;;;;9.73;5.20;;;;;;;8.32;70.11;100647.85;1744461;82;21379;-75
2021/09/05 02:01:09;;;;;;;9.85;5.47;;;;;;;8.33;70.09;100651.33;1741504;82;21459;-76
2021/09/05 02:03:47;;;;;;;10.75;5.78;;;;;;;8.32;70.06;100650.96;1743178;82;21044;-76
2021/09/05 02:06:15;;;;;;;9.95;5.30;;;;;;;8.31;70.04;100651.91;1742437;80;21767;-76
2021/09/05 02:08:45;;;;;;;10.00;5.35;;;;;;;8.30;70.04;100656.80;1718551;80;20962;-79
2021/09/05 02:11:17;;;;;;;11.70;5.28;;;;;;;8.27;70.06;100657.82;1773043;80;21495;-78
2021/09/05 02:14:03;;;;;;;9.18;5.28;;;;;;;8.24;70.05;100658.03;1761722;80;20941;-77
2021/09/05 02:16:34;;;;;;;11.20;5.37;;;;;;;8.21;70.04;100660.03;1696256;82;21043;-77
2021/09/05 02:19:08;;;;;;;9.20;5.08;;;;;;;8.19;70.08;100660.58;1765277;80;21833;-78
2021/09/05 02:21:37;;;;;;;10.05;5.50;;;;;;;8.16;70.15;100659.47;1742223;82;20988;-78
2021/09/05 02:24:09;;;;;;;8.55;5.33;;;;;;;8.16;70.22;100656.84;1742465;81;20997;-78
2021/09/05 02:26:49;;;;;;;10.15;5.80;;;;;;;8.16;70.21;100662.10;1748731;80;20953;-78
2021/09/05 02:29:29;;;;;;;11.12;5.90;;;;;;;8.14;70.26;100664.84;1708599;82;21111;-76
2021/09/05 02:32:13;;;;;;;8.80;5.35;;;;;;;8.15;70.34;100668.31;1770595;80;21848;-75
2021/09/05 02:34:50;;;;;;;10.72;5.75;;;;;;;8.16;70.44;100667.36;1734749;82;21020;-77
2021/09/05 02:37:31;;;;;;;9.30;5.20;;;;;;;8.17;70.55;100669.89;1650118;84;21009;-76
2021/09/05 02:40:16;;;;;;;10.58;5.53;;;;;;;8.18;70.64;100668.10;1761269;80;20988;-76
2021/09/05 02:42:56;;;;;;;9.70;5.60;;;;;;;8.19;70.64;100665.84;1742965;82;20932;-75
2021/09/05 02:45:41;;;;;;;9.73;5.67;;;;;;;8.20;70.59;100676.73;1748916;80;22835;-76
2021/09/05 02:48:12;;;;;;;8.65;5.35;;;;;;;8.20;70.58;100671.47;1765333;80;21494;-75
2021/09/05 02:50:52;;;;;;;10.35;6.00;;;;;;;8.18;70.55;100672.05;1773067;80;20980;-76
2021/09/05 02:53:39;;;;;;;12.40;5.85;;;;;;;8.15;70.53;100677.05;1775105;80;21400;-76
2021/09/05 02:56:07;;;;;;;8.50;5.33;;;;;;;8.11;70.53;100685.25;1771450;80;20988;-77
2021/09/05 02:58:35;;;;;;;8.25;5.45;;;;;;;8.06;70.55;100686.84;1773010;80;21837;-77
2021/09/05 03:01:06;;;;;;;8.35;5.40;;;;;;;8.03;70.54;100687.89;1751399;80;20989;-77
2021/09/05 03:03:36;;;;;;;10.32;5.53;;;;;;;8.02;70.54;100687.99;1749996;80;20980;-76
2021/09/05 03:06:07;;;;;;;9.90;5.83;;;;;;;7.99;70.55;100690.80;1753867;80;20989;-78
2021/09/05 03:08:35;;;;;;;9.05;5.65;;;;;;;7.97;70.61;100690.91;1772302;80;20945;-77
2021/09/05 03:11:05;;;;;;;10.95;5.03;;;;;;;7.96;70.59;100694.48;1766335;79;21067;-78
2021/09/05 03:13:35;;;;;;;9.33;5.58;;;;;;;7.93;70.63;100699.94;1737914;80;20998;-77
2021/09/05 03:16:03;;;;;;;7.60;5.28;;;;;;;7.90;70.66;100696.64;1771846;80;21628;-77
2021/09/05 03:18:45;;;;;;;10.13;5.08;;;;;;;7.87;70.68;100702.94;1739090;80;20984;-79
2021/09/05 03:21:22;;;;;;;9.58;5.83;;;;;;;7.85;70.71;100699.58;1771729;80;21480;-78
2021/09/05 03:23:51;;;;;;;8.63;5.50;;;;;;;7.82;70.81;100701.09;1773744;80;21856;-77
2021/09/05 03:26:36;;;;;;;10.68;5.60;;;;;;;7.85;70.91;100702.20;1764527;80;21007;-79
2021/09/05 03:29:04;;;;;;;9.65;5.33;;;;;;;7.90;70.93;100705.84;1729193;82;21067;-76
2021/09/05 03:31:33;;;;;;;11.18;5.20;;;;;;;7.93;70.90;100708.30;1753625;80;21359;-77
2021/09/05 03:34:01;;;;;;;7.87;5.05;;;;;;;7.94;70.83;100717.88;1772765;80;21531;-76
2021/09/05 03:36:32;;;;;;;8.80;5.28;;;;;;;7.91;70.80;100716.73;1750446;80;21842;-76
2021/09/05 03:39:06;;;;;;;9.05;5.05;;;;;;;7.88;70.89;100719.09;1744269;80;21016;-76
2021/09/05 03:41:35;;;;;;;7.67;5.25;;;;;;;7.88;70.88;100720.41;1702029;80;20992;-77
2021/09/05 03:44:20;;;;;;;12.03;5.50;;;;;;;7.88;70.91;100723.04;1775007;80;20929;-75
2021/09/05 03:47:06;;;;;;;8.78;5.33;;;;;;;7.91;70.91;100723.31;1755008;80;21040;-77
2021/09/05 03:49:44;;;;;;;8.35;5.05;;;;;;;7.91;70.91;100728.13;1744364;82;22439;-77
2021/09/05 03:52:13;;;;;;;8.45;5.05;;;;;;;7.88;70.93;100727.45;1744286;81;20949;-77
2021/09/05 03:54:40;;;;;;;8.85;4.85;;;;;;;7.86;70.96;100735.45;1723671;81;20949;-77
2021/09/05 03:57:07;;;;;;;9.43;5.05;;;;;;;7.84;71.04;100736.02;1745167;80;20940;-79
2021/09/05 03:59:35;;;;;;;8.80;4.95;;;;;;;7.84;71.08;100743.91;1744347;82;21440;-77
2021/09/05 04:02:03;;;;;;;7.72;5.05;;;;;;;7.85;71.17;100747.38;1744137;82;21845;-77
2021/09/05 04:04:31;;;;;;;9.88;4.90;;;;;;;7.88;71.32;100744.08;1744363;82;20937;-77
2021/09/05 04:07:01;;;;;;;7.72;5.12;;;;;;;7.96;71.31;100738.34;1744304;82;21463;-78
2021/09/05 04:12:18;;;;;;;8.00;5.00;;;;;;;8.03;71.35;100740.50;1747136;80;20993;-76
2021/09/05 04:14:45;;;;;;;8.38;5.17;;;;;;;8.07;71.35;100739.83;1724149;82;21841;-77
2021/09/05 04:17:11;;;;;;;9.95;5.25;;;;;;;8.11;71.38;100748.39;1750690;80;20968;-78
2021/09/05 04:19:39;;;;;;;7.67;4.58;;;;;;;8.12;71.39;100741.71;1744448;82;21415;-78
2021/09/05 04:22:05;;;;;;;14.28;4.75;;;;;;;8.15;71.46;100742.83;1736794;80;21408;-77
2021/09/05 04:24:33;;;;;;;8.80;4.80;;;;;;;8.23;71.47;100742.34;1733702;81;21478;-78
2021/09/05 04:27:01;;;;;;;8.53;4.85;;;;;;;8.32;71.43;100749.18;1754559;80;21803;-76
2021/09/05 04:29:27;;;;;;;9.55;4.75;;;;;;;8.41;71.40;100749.56;1749095;80;21436;-78
2021/09/05 04:31:54;;;;;;;5.28;3.75;;;;;;;8.48;71.29;100745.10;1775195;80;21048;-78
2021/09/05 04:34:20;;;;;;;6.37;4.10;;;;;;;8.58;71.19;100749.30;1753979;80;20949;-77
2021/09/05 04:36:46;;;;;;;9.03;4.37;;;;;;;8.67;71.08;100747.38;1775447;80;20983;-77
2021/09/05 04:39:13;;;;;;;7.37;4.40;;;;;;;8.78;70.91;100748.87;1755196;80;22207;-76
2021/09/05 04:41:39;;;;;;;8.90;5.22;;;;;;;8.90;70.69;100759.06;1724229;82;20980;-77
2021/09/05 04:44:07;;;;;;;7.87;4.53;;;;;;;8.99;70.53;100758.92;1744475;82;20964;-77
2021/09/05 04:46:34;;;;;;;8.18;4.55;;;;;;;9.07;70.42;100761.86;1758789;80;21019;-78
2021/09/05 04:49:00;;;;;;;6.78;4.37;;;;;;;9.15;70.21;100761.72;1762811;80;21047;-78
2021/09/05 04:51:26;;;;;;;6.97;4.35;;;;;;;9.27;69.97;100764.50;1747804;80;22457;-76
2021/09/05 04:53:54;;;;;;;7.40;4.78;;;;;;;9.38;69.73;100765.93;1758495;80;21023;-76
2021/09/05 04:56:20;;;;;;;8.48;4.40;;;;;;;9.50;69.57;100766.88;1752215;80;20932;-76
2021/09/05 04:58:47;;;;;;;8.13;4.58;;;;;;;9.60;69.38;100763.50;1775094;80;20996;-75
2021/09/05 05:01:13;;;;;;;6.67;4.15;;;;;;;9.70;69.26;100768.50;1775305;79;20917;-74
2021/09/05 05:03:40;;;;;;;9.38;4.72;;;;;;;9.77;69.21;100764.13;1767039;80;22447;-74
2021/09/05 05:06:07;;;;;;;8.00;4.37;;;;;;;9.86;69.08;100767.45;1744365;82;21040;-75
2021/09/05 05:08:34;;;;;;;9.50;4.37;;;;;;;9.94;68.99;100772.56;1746689;82;21027;-76
2021/09/05 05:11:01;;;;;;;8.45;4.40;;;;;;;10.03;68.85;100769.72;1764841;80;21380;-76
2021/09/05 05:13:29;;;;;;;7.33;4.20;;;;;;;10.13;68.69;100769.91;1783488;80;21407;-77
2021/09/05 05:15:56;;;;;;;9.15;4.78;;;;;;;10.24;68.46;100771.37;1774781;80;22164;-77
2021/09/05 05:18:24;;;;;;;7.33;4.33;;;;;;;10.37;68.25;100768.20;1756751;80;21011;-75
2021/09/05 05:20:51;;;;;;;7.47;4.40;;;;;;;10.49;67.90;100777.86;1767557;80;21395;-74
2021/09/05 05:23:18;;;;;;;6.33;3.72;;;;;;;10.61;67.67;100776.13;1752824;80;20980;-74
2021/09/05 05:25:45;;;;;;;7.70;4.20;;;;;;;10.72;67.33;100774.05;1753549;80;20988;-76
2021/09/05 05:28:11;;;;;;;9.45;3.83;;;;;;;10.81;66.80;100776.84;1757639;80;22211;-74
2021/09/05 05:30:39;;;;;;;6.35;4.00;;;;;;;10.87;66.22;100775.53;1752296;81;21023;-84
2021/09/05 05:33:06;;;;;;;9.25;4.17;;;;;;;10.94;65.43;100782.06;1752721;82;21043;-80
2021/09/05 05:35:32;;;;;;;6.50;4.25;;;;;;;11.00;65.35;100784.70;1752490;82;20944;-81
2021/09/05 05:38:00;;;;;;;6.50;3.92;;;;;;;11.06;65.13;100783.78;1765189;80;21475;-75
2021/09/05 05:40:26;;;;;;;5.97;3.90;;;;;;;11.15;64.84;100783.57;1783455;80;21808;-75
2021/09/05 05:42:55;;;;;;;9.18;4.25;;;;;;;11.24;64.83;100782.03;1752887;80;20904;-76
2021/09/05 05:45:22;;;;;;;9.45;3.77;;;;;;;11.31;64.45;100786.75;1722068;80;21080;-74
2021/09/05 05:47:48;;;;;;;5.05;3.45;;;;;;;11.33;63.93;100786.15;1753826;80;21400;-76
2021/09/05 05:50:14;;;;;;;5.58;3.50;;;;;;;11.36;63.29;100789.87;1762130;80;21087;-76
2021/09/05 05:52:42;;;;;;;5.10;3.20;;;;;;;11.39;62.93;100790.98;1783557;80;20917;-75
2021/09/05 05:55:10;;;;;;;5.53;3.35;;;;;;;11.45;62.67;100802.40;1770296;80;20941;-74
2021/09/05 05:57:36;;;;;;;7.30;3.25;;;;;;;11.50;62.06;100806.03;1778243;80;21019;-73
2021/09/05 06:00:06;;;;;;;6.70;3.25;;;;;;;11.53;62.09;100807.11;1781089;79;20956;-76
2021/09/05 06:02:34;;;;;;;4.78;3.02;;;;;;;11.62;61.96;100811.70;1754667;80;21031;-75
2021/09/05 06:05:01;;;;;;;7.05;3.22;;;;;;;11.70;61.62;100808.47;1752408;81;22625;-76
2021/09/05 06:07:27;;;;;;;5.20;2.62;;;;;;;11.78;61.61;100814.02;1752559;82;20984;-76
2021/09/05 06:09:54;;;;;;;5.20;3.00;;;;;;;11.86;61.32;100815.59;1758704;80;21028;-74
2021/09/05 06:12:21;;;;;;;5.92;3.37;;;;;;;11.93;60.73;100817.30;1766445;80;21067;-74
2021/09/05 06:14:48;;;;;;;6.97;3.52;;;;;;;11.98;60.43;100810.69;1771909;80;20984;-74
2021/09/05 06:17:16;;;;;;;3.87;2.55;;;;;;;12.06;60.32;100819.81;1773219;80;20965;-77
2021/09/05 06:19:42;;;;;;;4.25;2.67;;;;;;;12.17;59.95;100817.19;1770635;80;20936;-75
2021/09/05 06:22:08;;;;;;;5.97;3.00;;;;;;;12.27;59.73;100818.14;1752966;80;20933;-75
2021/09/05 06:24:35;;;;;;;4.58;2.90;;;;;;;12.36;58.98;100824.04;1747650;80;21003;-73
2021/09/05 06:27:03;;;;;;;5.17;2.50;;;;;;;12.46;58.93;100822.34;1748007;80;21442;-79
2021/09/05 06:29:33;;;;;;;3.75;2.30;;;;;;;12.54;58.41;100819.05;1755829;80;21763;-79
2021/09/05 06:31:59;;;;;;;5.65;2.20;;;;;;;12.59;57.97;100812.42;1776130;80;20914;-76
2021/09/05 06:34:25;;;;;;;4.87;2.50;;;;;;;12.68;57.41;100819.27;1769152;80;21013;-78
2021/09/05 06:36:55;;;;;;;4.37;2.42;;;;;;;12.70;56.62;100823.47;1751964;80;21083;-82
2021/09/05 06:39:21;;;;;;;3.12;2.02;;;;;;;12.73;56.23;100827.19;1754031;80;21070;-80
2021/09/05 06:41:47;;;;;;;4.62;2.02;;;;;;;12.77;55.76;100831.30;1756075;79;21796;-80
2021/09/05 06:44:14;;;;;;;3.77;1.77;;;;;;;12.80;55.84;100834.17;1751661;80;21007;-81
2021/09/05 06:46:41;;;;;;;4.20;2.20;;;;;;;12.88;55.60;100839.70;1750616;80;21134;-81
2021/09/05 06:49:07;;;;;;;3.85;1.80;;;;;;;13.00;55.39;100837.84;1774489;79;21090;-83
2021/09/05 06:51:34;;;;;;;3.40;2.08;;;;;;;13.11;54.96;100839.96;1748018;80;21019;-81
2021/09/05 06:54:00;;;;;;;3.75;2.10;;;;;;;13.17;54.66;100842.12;1746537;80;21816;-75
2021/09/05 06:56:27;;;;;;;4.20;1.90;;;;;;;13.27;54.64;100844.05;1746509;82;20976;-75
2021/09/05 06:58:53;;;;;;;4.30;1.75;;;;;;;13.36;53.77;100850.75;1752555;80;21062;-75
2021/09/05 07:01:19;;;;;;;5.08;2.17;;;;;;;13.35;53.62;100853.53;1758626;80;21023;-74
2021/09/05 07:03:46;;;;;;;3.25;1.80;;;;;;;13.42;53.74;100857.37;1758110;80;21074;-79
2021/09/05 07:06:12;;;;;;;3.08;2.00;;;;;;;13.52;53.83;100856.95;1777135;80;22142;-76
2021/09/05 07:08:39;;;;;;;7.20;2.02;;;;;;;13.68;53.28;100852.50;1765903;80;21003;-75
2021/09/05 07:11:07;;;;;;;4.03;2.47;;;;;;;13.78;52.67;100858.70;1744591;80;21547;-78
2021/09/05 07:13:33;;;;;;;4.00;2.40;;;;;;;13.80;52.19;100861.23;1776776;80;21474;-76
2021/09/05 07:16:00;;;;;;;4.25;2.10;;;;;;;13.80;52.39;100862.09;1777147;80;20928;-80
2021/09/05 07:18:26;;;;;;;4.00;2.02;;;;;;;13.85;52.31;100863.02;1727877;82;22515;-78
2021/09/05 07:20:53;;;;;;;3.15;2.10;;;;;;;13.97;52.03;100868.60;1761235;80;21440;-80
2021/09/05 07:23:19;;;;;;;2.95;2.00;;;;;;;14.04;50.70;100870.61;1748296;80;21441;-78
2021/09/05 07:25:46;;;;;;;3.55;1.90;;;;;;;14.06;50.16;100874.45;1764216;80;21090;-76
2021/09/05 07:28:12;;;;;;;4.87;2.33;;;;;;;14.09;50.38;100874.21;1749197;80;21007;-80
2021/09/05 07:30:39;;;;;;;3.10;1.95;;;;;;;14.14;50.62;100875.13;1746508;80;21514;-79
2021/09/05 07:33:07;;;;;;;3.70;1.90;;;;;;;14.24;50.32;100870.70;1768157;80;20904;-78
2021/09/05 07:35:34;;;;;;;3.27;1.80;;;;;;;14.30;49.62;100872.34;1752920;80;21056;-74
2021/09/05 07:38:00;;;;;;;3.37;1.72;;;;;;;14.33;49.09;100869.91;1751163;79;20989;-79
2021/09/05 07:40:26;;;;;;;3.60;1.70;;;;;;;14.33;48.95;100874.73;1746347;81;21490;-77
2021/09/05 07:42:53;;;;;;;3.75;1.80;;;;;;;14.40;49.36;100882.17;1771520;79;22785;-79
2021/09/05 07:45:19;;;;;;;3.25;1.60;;;;;;;14.50;49.89;100880.42;1755271;80;21565;-77
2021/09/05 07:47:46;;;;;;;3.37;1.70;;;;;;;14.57;48.73;100882.41;1771392;80;21091;-83
2021/09/05 07:50:13;;;;;;;2.87;1.70;;;;;;;14.60;48.44;100885.28;1747582;80;21113;-75
2021/09/05 07:52:39;;;;;;;3.87;2.17;;;;;;;14.66;48.93;100878.56;1766047;80;21023;-76
2021/09/05 07:55:06;;;;;;;3.92;1.80;;;;;;;14.78;48.77;100878.83;1766205;80;21808;-75
2021/09/05 07:57:33;;;;;;;4.33;1.77;;;;;;;14.84;48.37;100877.77;1765893;80;20956;-76
2021/09/05 07:59:59;;;;;;;3.10;1.70;;;;;;;14.93;48.56;100885.42;1749262;80;20968;-81
2021/09/05 08:02:25;;;;;;;3.02;1.70;;;;;;;15.05;48.77;100872.83;1747975;80;20984;-78
2021/09/05 08:04:52;;;;;;;2.42;1.47;;;;;;;15.21;48.78;100869.63;1754224;80;21075;-77
2021/09/05 08:07:19;;;;;;;2.22;1.45;;;;;;;15.35;47.98;100879.39;1747887;80;22165;-76
2021/09/05 08:09:45;;;;;;;1.87;1.40;;;;;;;15.50;47.29;100880.28;1771217;79;21475;-73
2021/09/05 08:12:12;;;;;;;2.55;1.50;;;;;;;15.58;46.44;100879.92;1769832;80;21067;-72
2021/09/05 08:14:39;;;;;;;2.22;1.45;;;;;;;15.60;45.91;100871.79;1744542;80;20968;-73
2021/09/05 08:17:06;;;;;;;2.10;1.35;;;;;;;15.61;45.96;100876.16;1752772;80;21030;-80
2021/09/05 08:19:33;;;;;;;2.10;1.30;;;;;;;15.70;46.12;100876.14;1767303;80;21795;-80
2021/09/05 08:21:59;;;;;;;2.85;1.10;;;;;;;15.83;45.39;100879.86;1744943;80;21139;-80
2021/09/05 08:24:26;;;;;;;4.17;1.20;;;;;;;15.90;44.66;100870.78;1729326;80;21012;-79
2021/09/05 08:26:52;;;;;;;2.52;1.30;;;;;;;15.99;44.53;100877.91;1747401;80;20944;-77
2021/09/05 08:29:18;;;;;;;2.47;1.20;;;;;;;16.09;44.43;100880.05;1761853;80;21031;-75
2021/09/05 08:31:45;;;;;;;1.32;1.02;;;;;;;16.23;44.33;100876.09;1770690;80;21733;-79
2021/09/05 08:34:11;;;;;;;1.82;1.15;;;;;;;16.33;44.22;100881.39;1743567;82;20952;-80
2021/09/05 08:36:37;;;;;;;1.87;1.30;;;;;;;16.44;43.89;100876.70;1744342;80;21540;-82
2021/09/05 08:39:04;;;;;;;2.40;0.98;;;;;;;16.53;42.82;100878.48;1748816;80;21436;-85
2021/09/05 08:41:30;;;;;;;1.95;0.88;;;;;;;16.42;41.50;100873.35;1743657;80;20928;-83
2021/09/05 08:43:58;;;;;;;4.08;0.78;;;;;;;16.31;41.92;100880.21;1744748;80;22815;-81
2021/09/05 08:46:27;;;;;;;1.72;0.80;;;;;;;16.44;42.18;100874.53;1771979;80;21040;-83
2021/09/05 08:48:54;;;;;;;1.35;0.72;;;;;;;16.52;39.90;100879.48;1774153;79;20992;-82
2021/09/05 08:51:21;;;;;;;2.65;0.80;;;;;;;16.43;37.81;100876.36;1774661;80;20997;-83
2021/09/05 08:53:47;;;;;;;1.67;0.90;;;;;;;16.35;37.49;100886.08;1754041;80;21430;-82
2021/09/05 08:56:14;;;;;;;1.57;0.98;;;;;;;16.32;38.72;100883.22;1765761;79;22460;-79
2021/09/05 08:58:41;;;;;;;1.20;0.70;;;;;;;16.43;37.57;100875.03;1744499;80;20928;-81
2021/09/05 09:01:20;;;;;;;2.80;0.95;;;;;;;16.45;37.88;100874.88;1751620;80;21020;-81
2021/09/05 09:03:47;;;;;;;1.22;0.70;;;;;;;16.48;36.36;100883.41;1743880;80;20992;-82
2021/09/05 09:06:19;;;;;;;1.35;0.65;;;;;;;16.47;36.19;100887.06;1759612;80;20996;-78
2021/09/05 09:08:56;;;;;;;2.42;0.70;;;;;;;16.56;35.42;100889.34;1757908;80;21510;-81
2021/09/05 09:11:23;;;;;;;1.98;0.80;;;;;;;16.58;36.09;100882.86;1747986;80;21021;-79
2021/09/05 09:13:55;;;;;;;1.15;0.60;;;;;;;16.66;36.48;100888.80;1756305;80;21510;-80
2021/09/05 09:16:21;;;;;;;1.35;0.70;;;;;;;16.81;36.92;100877.17;1746403;80;21016;-80
2021/09/05 09:18:49;;;;;;;1.25;0.70;;;;;;;17.08;37.51;100880.27;1754111;80;21086;-80
2021/09/05 09:21:17;;;;;;;1.47;1.00;;;;;;;17.33;37.03;100876.02;1721218;82;22214;-81
2021/09/05 09:23:43;;;;;;;1.25;0.85;;;;;;;17.40;36.00;100886.44;1743097;81;21526;-80
2021/09/05 09:26:13;;;;;;;1.37;0.90;;;;;;;17.36;36.04;100889.89;1716955;82;21466;-75
2021/09/05 09:28:47;;;;;;;1.45;0.90;;;;;;;17.33;36.12;100877.36;1773103;80;21479;-77
2021/09/05 09:31:21;;;;;;;2.02;1.00;;;;;;;17.45;36.89;100885.47;1761211;80;21071;-75
2021/09/05 09:33:56;;;;;;;1.57;0.90;;;;;;;17.64;36.44;100877.28;1767221;80;21835;-76
2021/09/05 09:36:28;;;;;;;1.52;0.70;;;;;;;17.84;35.73;100876.62;1758405;80;20987;-75
2021/09/05 09:39:03;;;;;;;2.42;0.88;;;;;;;17.98;35.33;100883.24;1743496;82;21016;-76
2021/09/05 09:41:36;;;;;;;2.55;0.98;;;;;;;18.05;34.93;100885.63;1743141;82;21000;-76
2021/09/05 09:44:06;;;;;;;1.27;0.93;;;;;;;17.88;33.29;100883.84;1749233;80;21419;-78
2021/09/05 09:46:37;;;;;;;1.20;0.82;;;;;;;17.62;33.65;100888.63;1746483;80;21865;-82
2021/09/05 09:49:05;;;;;;;2.02;0.70;;;;;;;17.57;33.89;100882.92;1773857;79;21059;-75
2021/09/05 09:51:33;;;;;;;1.40;0.80;;;;;;;17.66;34.42;100887.80;1752759;80;21415;-74
2021/09/05 09:54:00;;;;;;;2.35;0.98;;;;;;;17.79;32.49;100883.44;1747955;80;21019;-76
2021/09/05 09:56:27;;;;;;;1.75;1.00;;;;;;;17.94;34.11;100878.69;1743258;82;21012;-75
2021/09/05 09:59:00;;;;;;;2.30;0.85;;;;;;;18.21;34.13;100880.36;1743270;82;21827;-76
2021/09/05 10:01:27;;;;;;;1.57;0.70;;;;;;;18.57;33.01;100878.86;1738137;80;21043;-77
2021/09/05 10:03:57;;;;;;;1.80;0.70;;;;;;;18.80;32.13;100877.79;1774229;80;21676;-74
2021/09/05 10:06:27;;;;;;;2.70;0.78;;;;;;;18.96;32.46;100878.34;1773887;80;21012;-77
2021/09/05 10:09:06;;;;;;;1.27;0.80;;;;;;;19.14;32.27;100873.70;1773924;80;21015;-81
2021/09/05 10:11:35;;;;;;;1.17;0.80;;;;;;;19.36;32.33;100877.06;1720251;82;21860;-85
2021/09/05 10:14:01;;;;;;;1.90;1.20;;;;;;;19.62;29.86;100884.98;1746479;82;21063;-81
2021/09/05 10:16:29;;;;;;;1.62;0.80;;;;;;;19.61;30.79;100883.81;1746519;82;21027;-82
2021/09/05 10:19:00;;;;;;;2.92;0.70;;;;;;;19.72;30.77;100876.77;1746640;82;21040;-81
2021/09/05 10:21:27;;;;;;;0.80;0.62;;;;;;;19.84;29.19;100876.74;1746669;82;21338;-82
2021/09/05 10:23:57;;;;;;;1.72;0.85;;;;;;;19.84;30.01;100871.88;1748526;82;21803;-81
2021/09/05 10:26:24;;;;;;;1.52;1.30;;;;;;;19.90;30.22;100879.27;1753390;80;21039;-82
2021/09/05 10:28:57;;;;;;;3.00;0.88;;;;;;;19.93;29.93;100878.41;1779015;80;21603;-83
2021/09/05 10:31:27;;;;;;;1.75;1.12;;;;;;;20.00;29.94;100879.41;1766030;80;20984;-76
2021/09/05 10:33:54;;;;;;;1.35;0.80;;;;;;;20.09;30.26;100882.08;1746637;82;21007;-80
2021/09/05 10:36:23;;;;;;;1.40;0.80;;;;;;;20.18;29.74;100889.09;1746743;82;21750;-80
2021/09/05 10:38:50;;;;;;;1.20;0.80;;;;;;;20.12;27.80;100883.90;1718991;82;21494;-82
2021/09/05 10:41:24;;;;;;;1.02;0.80;;;;;;;19.95;28.43;100891.13;1746643;82;21489;-84
2021/09/05 10:44:02;;;;;;;1.10;0.80;;;;;;;19.89;29.61;100883.78;1747326;80;21008;-84
2021/09/05 10:46:32;;;;;;;1.62;1.15;;;;;;;20.08;28.72;100879.06;1746648;80;21019;-81
2021/09/05 10:49:02;;;;;;;2.30;0.93;;;;;;;20.08;28.98;100876.38;1746236;82;39736;-90
2021/09/05 10:51:36;;;;;;;1.47;1.10;;;;;;;20.27;28.61;100882.70;1746528;80;20936;-80
2021/09/05 10:54:09;;;;;;;1.70;1.20;;;;;;;20.36;28.58;100884.82;1746914;82;21009;-87
2021/09/05 10:56:44;;;;;;;1.80;0.90;;;;;;;20.30;27.76;100889.05;1763631;80;20996;-83
2021/09/05 10:59:12;;;;;;;2.42;1.75;;;;;;;19.99;27.98;100888.46;1750947;80;21095;-84
2021/09/05 11:01:50;;;;;;;1.12;0.90;;;;;;;19.57;28.30;100885.13;1767063;80;21794;-80
2021/09/05 11:04:28;;;;;;;1.30;0.88;;;;;;;19.40;29.35;100883.78;1774007;79;21027;-79
2021/09/05 11:07:05;;;;;;;11.55;7.40;;;;;;;19.63;30.05;100880.45;1746524;82;21004;-79
2021/09/05 11:09:39;;;;;;;4.47;2.70;;;;;;;19.89;29.54;100869.55;1746539;81;21044;-79
2021/09/05 11:12:23;;;;;;;1.98;1.40;;;;;;;20.04;28.83;100876.38;1746261;80;20992;-79
2021/09/05 11:14:54;;;;;;;1.90;0.90;;;;;;;20.12;28.74;100868.31;1746273;82;21765;-81
2021/09/05 11:17:33;;;;;;;2.45;1.12;;;;;;;20.16;29.37;100870.97;1751185;80;21478;-79
2021/09/05 11:20:12;;;;;;;1.80;1.35;;;;;;;20.17;28.79;100879.34;1757687;80;21011;-80
2021/09/05 11:22:45;;;;;;;2.40;1.30;;;;;;;19.91;28.71;100880.93;1760340;80;21011;-80
2021/09/05 11:25:25;;;;;;;2.70;2.10;;;;;;;19.44;27.88;100875.73;1777610;80;21025;-80
2021/09/05 11:28:05;;;;;;;2.62;1.17;;;;;;;19.23;28.67;100871.37;1756615;80;21765;-82
2021/09/05 11:30:37;;;;;;;1.60;1.00;;;;;;;19.33;29.39;100870.70;1746411;82;21019;-84
2021/09/05 11:33:11;;;;;;;3.25;0.90;;;;;;;19.69;29.58;100862.38;1746222;82;21074;-82
2021/09/05 11:35:46;;;;;;;1.80;1.12;;;;;;;20.03;29.08;100859.95;1766611;80;20996;-83
2021/09/05 11:38:15;;;;;;;1.10;0.88;;;;;;;20.32;28.23;100852.66;1775038;80;21019;-82
2021/09/05 11:40:50;;;;;;;1.60;0.93;;;;;;;20.64;27.59;100843.65;1777308;80;21785;-80
2021/09/05 11:43:38;;;;;;;1.10;1.00;;;;;;;20.79;27.55;100848.61;1776747;80;21004;-81